sensor_id;sensor_type;location;lat;lon;timestamp;P1;durP1;ratioP1;P2;durP2;ratioP2
82867;SDS011;72629;51.206;4.424;2023-09-18T00:01:36;11.73;;;8.32;;
82867;SDS011;72629;51.206;4.424;2023-09-18T00:04:04;13.50;;;8.60;;
82867;SDS011;72629;51.206;4.424;2023-09-18T00:06:31;11.00;;;8.45;;
82867;SDS011;72629;51.206;4.424;2023-09-18T00:08:57;10.48;;;8.13;;
82867;SDS011;72629;51.206;4.424;2023-09-18T00:11:23;11.30;;;8.15;;
82867;SDS011;72629;51.206;4.424;2023-09-18T00:13:48;10.75;;;8.10;;
82867;SDS011;72629;51.206;4.424;2023-09-18T00:16:14;11.73;;;8.27;;
82867;SDS011;72629;51.206;4.424;2023-09-18T00:18:40;13.13;;;8.32;;
82867;SDS011;72629;51.206;4.424;2023-09-18T00:21:07;10.38;;;7.50;;
82867;SDS011;72629;51.206;4.424;2023-09-18T00:23:35;12.07;;;8.48;;
82867;SDS011;72629;51.206;4.424;2023-09-18T00:26:04;11.05;;;7.65;;
82867;SDS011;72629;51.206;4.424;2023-09-18T00:28:29;13.38;;;8.48;;
82867;SDS011;72629;51.206;4.424;2023-09-18T00:30:55;11.82;;;8.35;;
82867;SDS011;72629;51.206;4.424;2023-09-18T00:33:21;11.25;;;8.57;;
82867;SDS011;72629;51.206;4.424;2023-09-18T00:35:49;12.82;;;8.32;;
82867;SDS011;72629;51.206;4.424;2023-09-18T00:38:15;13.27;;;8.07;;
82867;SDS011;72629;51.206;4.424;2023-09-18T00:40:41;12.07;;;7.95;;
82867;SDS011;72629;51.206;4.424;2023-09-18T00:43:07;12.98;;;8.88;;
82867;SDS011;72629;51.206;4.424;2023-09-18T00:45:34;13.05;;;8.77;;
82867;SDS011;72629;51.206;4.424;2023-09-18T00:48:05;12.27;;;8.82;;
82867;SDS011;72629;51.206;4.424;2023-09-18T00:50:31;12.15;;;8.43;;
82867;SDS011;72629;51.206;4.424;2023-09-18T00:52:57;13.07;;;8.60;;
82867;SDS011;72629;51.206;4.424;2023-09-18T00:55:24;11.30;;;8.18;;
82867;SDS011;72629;51.206;4.424;2023-09-18T00:57:49;11.63;;;7.93;;
82867;SDS011;72629;51.206;4.424;2023-09-18T01:00:15;11.13;;;8.35;;
82867;SDS011;72629;51.206;4.424;2023-09-18T01:02:43;12.02;;;8.73;;
82867;SDS011;72629;51.206;4.424;2023-09-18T01:05:10;12.95;;;8.50;;
82867;SDS011;72629;51.206;4.424;2023-09-18T01:07:36;13.15;;;8.35;;
82867;SDS011;72629;51.206;4.424;2023-09-18T01:10:01;13.93;;;8.50;;
82867;SDS011;72629;51.206;4.424;2023-09-18T01:17:44;10.02;;;7.18;;
82867;SDS011;72629;51.206;4.424;2023-09-18T01:20:11;10.02;;;7.03;;
82867;SDS011;72629;51.206;4.424;2023-09-18T01:22:37;11.20;;;7.30;;
82867;SDS011;72629;51.206;4.424;2023-09-18T01:25:03;12.90;;;7.20;;
82867;SDS011;72629;51.206;4.424;2023-09-18T01:27:29;10.98;;;7.22;;
82867;SDS011;72629;51.206;4.424;2023-09-18T01:29:55;12.52;;;7.82;;
82867;SDS011;72629;51.206;4.424;2023-09-18T01:32:21;11.27;;;7.18;;
82867;SDS011;72629;51.206;4.424;2023-09-18T01:34:54;10.95;;;7.20;;
82867;SDS011;72629;51.206;4.424;2023-09-18T01:37:23;11.70;;;6.97;;
82867;SDS011;72629;51.206;4.424;2023-09-18T01:39:51;11.55;;;6.93;;
82867;SDS011;72629;51.206;4.424;2023-09-18T01:42:18;11.07;;;6.97;;
82867;SDS011;72629;51.206;4.424;2023-09-18T01:44:44;12.43;;;7.28;;
82867;SDS011;72629;51.206;4.424;2023-09-18T01:47:18;11.55;;;7.20;;
82867;SDS011;72629;51.206;4.424;2023-09-18T01:49:44;12.48;;;6.82;;
82867;SDS011;72629;51.206;4.424;2023-09-18T01:52:11;12.43;;;6.97;;
82867;SDS011;72629;51.206;4.424;2023-09-18T01:54:37;11.57;;;7.30;;
82867;SDS011;72629;51.206;4.424;2023-09-18T01:57:03;10.02;;;6.57;;
82867;SDS011;72629;51.206;4.424;2023-09-18T01:59:29;10.77;;;7.22;;
82867;SDS011;72629;51.206;4.424;2023-09-18T02:01:55;12.35;;;7.10;;
82867;SDS011;72629;51.206;4.424;2023-09-18T02:04:21;15.10;;;7.25;;
82867;SDS011;72629;51.206;4.424;2023-09-18T02:06:48;15.48;;;7.10;;
82867;SDS011;72629;51.206;4.424;2023-09-18T02:09:17;12.43;;;7.18;;
82867;SDS011;72629;51.206;4.424;2023-09-18T02:11:45;10.95;;;6.80;;
82867;SDS011;72629;51.206;4.424;2023-09-18T02:14:12;8.80;;;6.50;;
82867;SDS011;72629;51.206;4.424;2023-09-18T02:16:39;10.00;;;6.22;;
82867;SDS011;72629;51.206;4.424;2023-09-18T02:19:09;10.20;;;6.72;;
82867;SDS011;72629;51.206;4.424;2023-09-18T02:21:36;10.77;;;6.72;;
82867;SDS011;72629;51.206;4.424;2023-09-18T02:24:02;10.43;;;6.57;;
82867;SDS011;72629;51.206;4.424;2023-09-18T02:26:28;9.88;;;6.80;;
82867;SDS011;72629;51.206;4.424;2023-09-18T02:28:54;10.23;;;6.60;;
82867;SDS011;72629;51.206;4.424;2023-09-18T02:31:23;11.80;;;6.63;;
82867;SDS011;72629;51.206;4.424;2023-09-18T02:33:48;10.38;;;6.70;;
82867;SDS011;72629;51.206;4.424;2023-09-18T02:36:14;11.65;;;6.53;;
82867;SDS011;72629;51.206;4.424;2023-09-18T02:38:40;10.88;;;6.30;;
82867;SDS011;72629;51.206;4.424;2023-09-18T02:41:06;11.15;;;6.45;;
82867;SDS011;72629;51.206;4.424;2023-09-18T02:43:32;10.10;;;6.40;;
82867;SDS011;72629;51.206;4.424;2023-09-18T02:45:57;11.27;;;6.45;;
82867;SDS011;72629;51.206;4.424;2023-09-18T02:48:23;13.52;;;6.80;;
82867;SDS011;72629;51.206;4.424;2023-09-18T02:50:49;14.73;;;6.68;;
82867;SDS011;72629;51.206;4.424;2023-09-18T02:53:18;10.48;;;6.13;;
82867;SDS011;72629;51.206;4.424;2023-09-18T02:55:48;10.20;;;6.32;;
82867;SDS011;72629;51.206;4.424;2023-09-18T02:58:16;9.88;;;6.32;;
82867;SDS011;72629;51.206;4.424;2023-09-18T03:00:43;9.40;;;5.60;;
82867;SDS011;72629;51.206;4.424;2023-09-18T03:03:10;9.57;;;6.20;;
82867;SDS011;72629;51.206;4.424;2023-09-18T03:05:36;9.18;;;5.70;;
82867;SDS011;72629;51.206;4.424;2023-09-18T03:08:02;11.07;;;5.75;;
82867;SDS011;72629;51.206;4.424;2023-09-18T03:10:32;12.80;;;5.43;;
82867;SDS011;72629;51.206;4.424;2023-09-18T03:12:59;8.40;;;5.10;;
82867;SDS011;72629;51.206;4.424;2023-09-18T03:15:25;8.98;;;4.90;;
82867;SDS011;72629;51.206;4.424;2023-09-18T03:17:51;11.35;;;5.35;;
82867;SDS011;72629;51.206;4.424;2023-09-18T03:20:16;9.45;;;5.32;;
82867;SDS011;72629;51.206;4.424;2023-09-18T03:22:42;22.85;;;17.38;;
82867;SDS011;72629;51.206;4.424;2023-09-18T03:25:08;12.07;;;5.97;;
82867;SDS011;72629;51.206;4.424;2023-09-18T03:27:35;10.15;;;5.40;;
82867;SDS011;72629;51.206;4.424;2023-09-18T03:30:00;11.27;;;5.78;;
82867;SDS011;72629;51.206;4.424;2023-09-18T03:32:26;12.43;;;6.13;;
82867;SDS011;72629;51.206;4.424;2023-09-18T03:34:52;9.30;;;5.20;;
82867;SDS011;72629;51.206;4.424;2023-09-18T03:37:18;10.32;;;4.95;;
82867;SDS011;72629;51.206;4.424;2023-09-18T03:39:43;10.40;;;5.50;;
82867;SDS011;72629;51.206;4.424;2023-09-18T03:42:09;10.40;;;5.65;;
82867;SDS011;72629;51.206;4.424;2023-09-18T03:44:35;10.05;;;5.68;;
82867;SDS011;72629;51.206;4.424;2023-09-18T03:47:01;10.77;;;5.55;;
82867;SDS011;72629;51.206;4.424;2023-09-18T03:49:28;10.73;;;5.53;;
82867;SDS011;72629;51.206;4.424;2023-09-18T03:51:54;8.95;;;5.15;;
82867;SDS011;72629;51.206;4.424;2023-09-18T03:54:19;10.27;;;5.30;;
82867;SDS011;72629;51.206;4.424;2023-09-18T03:56:45;10.05;;;5.00;;
82867;SDS011;72629;51.206;4.424;2023-09-18T03:59:11;8.55;;;4.45;;
82867;SDS011;72629;51.206;4.424;2023-09-18T04:01:38;8.65;;;4.50;;
82867;SDS011;72629;51.206;4.424;2023-09-18T04:04:04;8.45;;;4.22;;
82867;SDS011;72629;51.206;4.424;2023-09-18T04:06:42;9.43;;;4.60;;
82867;SDS011;72629;51.206;4.424;2023-09-18T04:09:09;9.65;;;4.15;;
82867;SDS011;72629;51.206;4.424;2023-09-18T04:11:35;8.00;;;3.90;;
82867;SDS011;72629;51.206;4.424;2023-09-18T04:14:01;8.77;;;4.03;;
82867;SDS011;72629;51.206;4.424;2023-09-18T04:16:28;8.57;;;3.83;;
82867;SDS011;72629;51.206;4.424;2023-09-18T04:18:56;7.35;;;3.97;;
82867;SDS011;72629;51.206;4.424;2023-09-18T04:21:22;11.13;;;4.43;;
82867;SDS011;72629;51.206;4.424;2023-09-18T04:23:48;9.48;;;3.80;;
82867;SDS011;72629;51.206;4.424;2023-09-18T04:26:20;8.60;;;4.40;;
82867;SDS011;72629;51.206;4.424;2023-09-18T04:28:46;6.85;;;4.05;;
82867;SDS011;72629;51.206;4.424;2023-09-18T04:31:12;9.77;;;4.68;;
82867;SDS011;72629;51.206;4.424;2023-09-18T04:33:38;24.75;;;16.17;;
82867;SDS011;72629;51.206;4.424;2023-09-18T04:36:04;9.90;;;4.80;;
82867;SDS011;72629;51.206;4.424;2023-09-18T04:38:29;8.50;;;4.28;;
82867;SDS011;72629;51.206;4.424;2023-09-18T04:40:59;9.90;;;3.80;;
82867;SDS011;72629;51.206;4.424;2023-09-18T04:43:25;9.73;;;4.07;;
82867;SDS011;72629;51.206;4.424;2023-09-18T04:45:50;8.27;;;3.90;;
82867;SDS011;72629;51.206;4.424;2023-09-18T04:48:16;8.50;;;3.78;;
82867;SDS011;72629;51.206;4.424;2023-09-18T04:50:42;7.55;;;3.35;;
82867;SDS011;72629;51.206;4.424;2023-09-18T04:53:08;8.23;;;3.50;;
82867;SDS011;72629;51.206;4.424;2023-09-18T04:55:34;10.48;;;4.47;;
82867;SDS011;72629;51.206;4.424;2023-09-18T04:58:00;5.63;;;2.70;;
82867;SDS011;72629;51.206;4.424;2023-09-18T05:00:26;5.95;;;2.38;;
82867;SDS011;72629;51.206;4.424;2023-09-18T05:02:54;5.50;;;2.50;;
82867;SDS011;72629;51.206;4.424;2023-09-18T05:05:20;5.80;;;2.80;;
82867;SDS011;72629;51.206;4.424;2023-09-18T05:07:45;5.18;;;2.30;;
82867;SDS011;72629;51.206;4.424;2023-09-18T05:10:11;7.55;;;2.80;;
82867;SDS011;72629;51.206;4.424;2023-09-18T05:12:38;6.25;;;2.40;;
82867;SDS011;72629;51.206;4.424;2023-09-18T05:15:05;6.78;;;2.50;;
82867;SDS011;72629;51.206;4.424;2023-09-18T05:17:44;6.07;;;2.47;;
82867;SDS011;72629;51.206;4.424;2023-09-18T05:20:12;6.88;;;2.60;;
82867;SDS011;72629;51.206;4.424;2023-09-18T05:22:42;6.68;;;2.22;;
82867;SDS011;72629;51.206;4.424;2023-09-18T05:25:08;6.35;;;2.47;;
82867;SDS011;72629;51.206;4.424;2023-09-18T05:27:35;6.20;;;2.20;;
82867;SDS011;72629;51.206;4.424;2023-09-18T05:30:09;6.05;;;2.42;;
82867;SDS011;72629;51.206;4.424;2023-09-18T05:32:37;6.75;;;2.30;;
82867;SDS011;72629;51.206;4.424;2023-09-18T05:35:02;5.80;;;2.08;;
82867;SDS011;72629;51.206;4.424;2023-09-18T05:37:31;5.35;;;2.35;;
82867;SDS011;72629;51.206;4.424;2023-09-18T05:39:57;5.78;;;2.28;;
82867;SDS011;72629;51.206;4.424;2023-09-18T05:42:23;5.68;;;1.98;;
82867;SDS011;72629;51.206;4.424;2023-09-18T05:44:49;6.20;;;1.95;;
82867;SDS011;72629;51.206;4.424;2023-09-18T05:47:14;4.05;;;1.95;;
82867;SDS011;72629;51.206;4.424;2023-09-18T05:49:40;4.65;;;2.03;;
82867;SDS011;72629;51.206;4.424;2023-09-18T05:52:06;5.05;;;2.20;;
82867;SDS011;72629;51.206;4.424;2023-09-18T05:54:31;4.55;;;1.95;;
82867;SDS011;72629;51.206;4.424;2023-09-18T05:56:57;6.35;;;1.95;;
82867;SDS011;72629;51.206;4.424;2023-09-18T05:59:23;5.85;;;2.15;;
82867;SDS011;72629;51.206;4.424;2023-09-18T06:01:48;5.95;;;2.47;;
82867;SDS011;72629;51.206;4.424;2023-09-18T06:04:14;6.07;;;2.38;;
82867;SDS011;72629;51.206;4.424;2023-09-18T06:06:41;6.72;;;2.10;;
82867;SDS011;72629;51.206;4.424;2023-09-18T06:09:07;5.97;;;2.10;;
82867;SDS011;72629;51.206;4.424;2023-09-18T06:11:33;6.40;;;2.65;;
82867;SDS011;72629;51.206;4.424;2023-09-18T06:13:59;7.45;;;2.42;;
82867;SDS011;72629;51.206;4.424;2023-09-18T06:16:24;6.97;;;2.28;;
82867;SDS011;72629;51.206;4.424;2023-09-18T06:18:50;7.03;;;2.22;;
82867;SDS011;72629;51.206;4.424;2023-09-18T06:21:16;6.45;;;2.75;;
82867;SDS011;72629;51.206;4.424;2023-09-18T06:23:42;6.80;;;2.13;;
82867;SDS011;72629;51.206;4.424;2023-09-18T06:26:07;6.25;;;2.20;;
82867;SDS011;72629;51.206;4.424;2023-09-18T06:28:33;8.00;;;2.25;;
82867;SDS011;72629;51.206;4.424;2023-09-18T06:30:59;6.03;;;2.50;;
82867;SDS011;72629;51.206;4.424;2023-09-18T06:33:24;5.43;;;2.53;;
82867;SDS011;72629;51.206;4.424;2023-09-18T06:35:50;5.75;;;2.30;;
82867;SDS011;72629;51.206;4.424;2023-09-18T06:38:17;5.70;;;2.47;;
82867;SDS011;72629;51.206;4.424;2023-09-18T06:40:42;5.97;;;2.22;;
82867;SDS011;72629;51.206;4.424;2023-09-18T06:43:08;6.28;;;2.20;;
82867;SDS011;72629;51.206;4.424;2023-09-18T06:45:34;6.00;;;2.28;;
82867;SDS011;72629;51.206;4.424;2023-09-18T06:48:02;4.95;;;2.20;;
82867;SDS011;72629;51.206;4.424;2023-09-18T06:50:28;8.30;;;2.60;;
82867;SDS011;72629;51.206;4.424;2023-09-18T06:52:54;8.27;;;2.40;;
82867;SDS011;72629;51.206;4.424;2023-09-18T06:55:19;6.50;;;2.40;;
82867;SDS011;72629;51.206;4.424;2023-09-18T06:57:45;6.43;;;2.13;;
82867;SDS011;72629;51.206;4.424;2023-09-18T07:00:12;6.28;;;2.30;;
82867;SDS011;72629;51.206;4.424;2023-09-18T07:02:40;4.45;;;1.88;;
82867;SDS011;72629;51.206;4.424;2023-09-18T07:05:06;5.13;;;2.38;;
82867;SDS011;72629;51.206;4.424;2023-09-18T07:07:31;6.13;;;2.30;;
82867;SDS011;72629;51.206;4.424;2023-09-18T07:09:57;6.20;;;2.83;;
82867;SDS011;72629;51.206;4.424;2023-09-18T07:12:23;6.75;;;2.25;;
82867;SDS011;72629;51.206;4.424;2023-09-18T07:14:48;5.50;;;2.22;;
82867;SDS011;72629;51.206;4.424;2023-09-18T07:17:14;7.25;;;2.45;;
82867;SDS011;72629;51.206;4.424;2023-09-18T07:19:40;7.10;;;2.40;;
82867;SDS011;72629;51.206;4.424;2023-09-18T07:22:06;7.63;;;2.50;;
82867;SDS011;72629;51.206;4.424;2023-09-18T07:24:31;6.65;;;2.47;;
82867;SDS011;72629;51.206;4.424;2023-09-18T07:26:57;6.28;;;2.83;;
82867;SDS011;72629;51.206;4.424;2023-09-18T07:29:23;5.63;;;2.20;;
82867;SDS011;72629;51.206;4.424;2023-09-18T07:31:52;7.93;;;2.63;;
82867;SDS011;72629;51.206;4.424;2023-09-18T07:34:18;10.38;;;2.92;;
82867;SDS011;72629;51.206;4.424;2023-09-18T07:36:43;6.10;;;2.50;;
82867;SDS011;72629;51.206;4.424;2023-09-18T07:39:09;7.68;;;2.65;;
82867;SDS011;72629;51.206;4.424;2023-09-18T07:41:36;7.88;;;3.20;;
82867;SDS011;72629;51.206;4.424;2023-09-18T07:44:02;8.20;;;2.90;;
82867;SDS011;72629;51.206;4.424;2023-09-18T07:46:28;5.80;;;2.92;;
82867;SDS011;72629;51.206;4.424;2023-09-18T07:48:54;6.03;;;2.70;;
82867;SDS011;72629;51.206;4.424;2023-09-18T07:51:20;7.53;;;2.75;;
82867;SDS011;72629;51.206;4.424;2023-09-18T07:53:46;9.20;;;3.42;;
82867;SDS011;72629;51.206;4.424;2023-09-18T07:56:12;6.97;;;3.03;;
82867;SDS011;72629;51.206;4.424;2023-09-18T07:58:38;6.78;;;3.30;;
82867;SDS011;72629;51.206;4.424;2023-09-18T08:01:06;8.65;;;2.90;;
82867;SDS011;72629;51.206;4.424;2023-09-18T08:03:34;8.15;;;3.22;;
82867;SDS011;72629;51.206;4.424;2023-09-18T08:06:00;6.22;;;3.13;;
82867;SDS011;72629;51.206;4.424;2023-09-18T08:08:26;8.23;;;3.47;;
82867;SDS011;72629;51.206;4.424;2023-09-18T08:10:52;7.75;;;3.40;;
82867;SDS011;72629;51.206;4.424;2023-09-18T08:13:18;9.55;;;3.50;;
82867;SDS011;72629;51.206;4.424;2023-09-18T08:15:45;7.25;;;3.70;;
82867;SDS011;72629;51.206;4.424;2023-09-18T08:18:11;9.27;;;3.75;;
82867;SDS011;72629;51.206;4.424;2023-09-18T08:20:43;8.35;;;3.58;;
82867;SDS011;72629;51.206;4.424;2023-09-18T08:23:10;9.20;;;3.95;;
82867;SDS011;72629;51.206;4.424;2023-09-18T08:25:36;9.23;;;3.90;;
82867;SDS011;72629;51.206;4.424;2023-09-18T08:28:02;7.03;;;3.65;;
82867;SDS011;72629;51.206;4.424;2023-09-18T08:30:28;9.35;;;3.80;;
82867;SDS011;72629;51.206;4.424;2023-09-18T08:32:54;6.68;;;3.38;;
82867;SDS011;72629;51.206;4.424;2023-09-18T08:35:19;11.45;;;3.95;;
82867;SDS011;72629;51.206;4.424;2023-09-18T08:37:46;9.20;;;3.78;;
82867;SDS011;72629;51.206;4.424;2023-09-18T08:40:13;6.75;;;3.70;;
82867;SDS011;72629;51.206;4.424;2023-09-18T08:42:44;10.02;;;3.78;;
82867;SDS011;72629;51.206;4.424;2023-09-18T08:45:14;8.63;;;3.90;;
82867;SDS011;72629;51.206;4.424;2023-09-18T08:47:47;11.57;;;3.42;;
82867;SDS011;72629;51.206;4.424;2023-09-18T08:50:14;11.20;;;4.07;;
82867;SDS011;72629;51.206;4.424;2023-09-18T08:52:40;8.32;;;3.40;;
82867;SDS011;72629;51.206;4.424;2023-09-18T08:55:08;8.32;;;3.35;;
82867;SDS011;72629;51.206;4.424;2023-09-18T08:57:34;7.95;;;3.50;;
82867;SDS011;72629;51.206;4.424;2023-09-18T09:00:01;8.45;;;3.63;;
82867;SDS011;72629;51.206;4.424;2023-09-18T09:02:31;8.48;;;3.50;;
82867;SDS011;72629;51.206;4.424;2023-09-18T09:04:57;7.80;;;3.63;;
82867;SDS011;72629;51.206;4.424;2023-09-18T09:07:23;7.00;;;3.50;;
82867;SDS011;72629;51.206;4.424;2023-09-18T09:09:49;11.93;;;3.85;;
82867;SDS011;72629;51.206;4.424;2023-09-18T09:12:15;7.03;;;3.40;;
82867;SDS011;72629;51.206;4.424;2023-09-18T09:14:43;6.60;;;3.58;;
82867;SDS011;72629;51.206;4.424;2023-09-18T09:17:28;8.27;;;3.85;;
82867;SDS011;72629;51.206;4.424;2023-09-18T09:19:53;7.55;;;3.88;;
82867;SDS011;72629;51.206;4.424;2023-09-18T09:22:37;9.00;;;3.85;;
82867;SDS011;72629;51.206;4.424;2023-09-18T09:25:05;8.27;;;3.78;;
82867;SDS011;72629;51.206;4.424;2023-09-18T09:27:51;10.02;;;4.35;;
82867;SDS011;72629;51.206;4.424;2023-09-18T09:30:18;8.30;;;4.50;;
82867;SDS011;72629;51.206;4.424;2023-09-18T09:32:49;7.85;;;4.40;;
82867;SDS011;72629;51.206;4.424;2023-09-18T09:35:23;8.05;;;4.25;;
82867;SDS011;72629;51.206;4.424;2023-09-18T09:37:54;10.77;;;4.50;;
82867;SDS011;72629;51.206;4.424;2023-09-18T09:40:26;9.15;;;4.05;;
82867;SDS011;72629;51.206;4.424;2023-09-18T09:42:56;9.30;;;4.68;;
82867;SDS011;72629;51.206;4.424;2023-09-18T09:45:29;9.57;;;4.57;;
82867;SDS011;72629;51.206;4.424;2023-09-18T09:47:58;10.00;;;4.82;;
82867;SDS011;72629;51.206;4.424;2023-09-18T09:50:25;10.10;;;4.90;;
82867;SDS011;72629;51.206;4.424;2023-09-18T09:52:51;10.05;;;5.05;;
82867;SDS011;72629;51.206;4.424;2023-09-18T09:55:19;9.65;;;4.97;;
82867;SDS011;72629;51.206;4.424;2023-09-18T09:57:49;8.03;;;4.23;;
82867;SDS011;72629;51.206;4.424;2023-09-18T10:00:16;9.82;;;5.13;;
82867;SDS011;72629;51.206;4.424;2023-09-18T10:03:03;8.50;;;4.60;;
82867;SDS011;72629;51.206;4.424;2023-09-18T10:05:34;7.15;;;4.10;;
82867;SDS011;72629;51.206;4.424;2023-09-18T10:08:23;7.85;;;4.43;;
82867;SDS011;72629;51.206;4.424;2023-09-18T10:10:51;8.63;;;4.18;;
82867;SDS011;72629;51.206;4.424;2023-09-18T10:13:20;8.68;;;4.10;;
82867;SDS011;72629;51.206;4.424;2023-09-18T10:15:52;12.05;;;4.80;;
82867;SDS011;72629;51.206;4.424;2023-09-18T10:18:34;8.15;;;4.50;;
82867;SDS011;72629;51.206;4.424;2023-09-18T10:21:25;9.55;;;4.38;;
82867;SDS011;72629;51.206;4.424;2023-09-18T10:26:32;8.63;;;4.55;;
82867;SDS011;72629;51.206;4.424;2023-09-18T10:29:13;7.68;;;3.78;;
82867;SDS011;72629;51.206;4.424;2023-09-18T10:31:40;9.73;;;3.90;;
82867;SDS011;72629;51.206;4.424;2023-09-18T10:34:08;8.52;;;4.00;;
82867;SDS011;72629;51.206;4.424;2023-09-18T10:36:36;8.53;;;4.00;;
82867;SDS011;72629;51.206;4.424;2023-09-18T10:39:02;9.18;;;4.32;;
82867;SDS011;72629;51.206;4.424;2023-09-18T10:41:33;9.65;;;4.20;;
82867;SDS011;72629;51.206;4.424;2023-09-18T10:43:59;7.45;;;4.53;;
82867;SDS011;72629;51.206;4.424;2023-09-18T10:46:26;7.63;;;3.90;;
82867;SDS011;72629;51.206;4.424;2023-09-18T10:48:52;9.60;;;3.83;;
82867;SDS011;72629;51.206;4.424;2023-09-18T10:51:20;9.30;;;4.07;;
82867;SDS011;72629;51.206;4.424;2023-09-18T10:53:49;8.65;;;3.97;;
82867;SDS011;72629;51.206;4.424;2023-09-18T10:56:17;8.70;;;4.00;;
82867;SDS011;72629;51.206;4.424;2023-09-18T10:58:45;7.30;;;3.92;;
82867;SDS011;72629;51.206;4.424;2023-09-18T11:01:11;8.52;;;4.20;;
82867;SDS011;72629;51.206;4.424;2023-09-18T11:03:37;8.43;;;3.63;;
82867;SDS011;72629;51.206;4.424;2023-09-18T11:06:04;8.35;;;3.78;;
82867;SDS011;72629;51.206;4.424;2023-09-18T11:10:59;7.75;;;3.58;;
82867;SDS011;72629;51.206;4.424;2023-09-18T11:13:34;8.43;;;3.58;;
82867;SDS011;72629;51.206;4.424;2023-09-18T11:16:01;8.05;;;3.72;;
82867;SDS011;72629;51.206;4.424;2023-09-18T11:18:47;6.93;;;3.50;;
82867;SDS011;72629;51.206;4.424;2023-09-18T11:21:17;8.82;;;3.60;;
82867;SDS011;72629;51.206;4.424;2023-09-18T11:23:43;7.10;;;3.90;;
82867;SDS011;72629;51.206;4.424;2023-09-18T11:26:09;7.38;;;3.45;;
82867;SDS011;72629;51.206;4.424;2023-09-18T11:28:36;6.55;;;3.28;;
82867;SDS011;72629;51.206;4.424;2023-09-18T11:31:03;8.05;;;3.30;;
82867;SDS011;72629;51.206;4.424;2023-09-18T11:33:32;7.88;;;3.72;;
82867;SDS011;72629;51.206;4.424;2023-09-18T11:36:07;9.07;;;3.65;;
82867;SDS011;72629;51.206;4.424;2023-09-18T11:38:55;7.40;;;3.28;;
82867;SDS011;72629;51.206;4.424;2023-09-18T11:41:29;6.15;;;3.17;;
82867;SDS011;72629;51.206;4.424;2023-09-18T11:46:50;8.18;;;3.47;;
82867;SDS011;72629;51.206;4.424;2023-09-18T11:49:23;6.65;;;3.47;;
82867;SDS011;72629;51.206;4.424;2023-09-18T11:51:52;10.02;;;3.40;;
82867;SDS011;72629;51.206;4.424;2023-09-18T11:54:19;7.40;;;3.58;;
82867;SDS011;72629;51.206;4.424;2023-09-18T11:56:46;8.05;;;3.17;;
82867;SDS011;72629;51.206;4.424;2023-09-18T11:59:12;8.02;;;3.40;;
82867;SDS011;72629;51.206;4.424;2023-09-18T12:01:38;6.32;;;3.15;;
82867;SDS011;72629;51.206;4.424;2023-09-18T12:04:11;7.53;;;3.40;;
82867;SDS011;72629;51.206;4.424;2023-09-18T12:06:41;5.88;;;3.00;;
82867;SDS011;72629;51.206;4.424;2023-09-18T12:09:07;8.13;;;3.55;;
82867;SDS011;72629;51.206;4.424;2023-09-18T12:11:34;6.20;;;3.70;;
82867;SDS011;72629;51.206;4.424;2023-09-18T12:14:00;6.40;;;3.13;;
82867;SDS011;72629;51.206;4.424;2023-09-18T12:16:29;7.68;;;3.33;;
82867;SDS011;72629;51.206;4.424;2023-09-18T12:18:55;6.88;;;3.50;;
82867;SDS011;72629;51.206;4.424;2023-09-18T12:21:22;8.50;;;3.50;;
82867;SDS011;72629;51.206;4.424;2023-09-18T12:23:47;6.82;;;3.30;;
82867;SDS011;72629;51.206;4.424;2023-09-18T12:26:14;7.75;;;3.22;;
82867;SDS011;72629;51.206;4.424;2023-09-18T12:28:40;8.87;;;2.90;;
82867;SDS011;72629;51.206;4.424;2023-09-18T12:31:11;6.70;;;3.10;;
82867;SDS011;72629;51.206;4.424;2023-09-18T12:33:38;7.47;;;3.10;;
82867;SDS011;72629;51.206;4.424;2023-09-18T12:36:05;6.47;;;3.00;;
82867;SDS011;72629;51.206;4.424;2023-09-18T12:38:33;7.40;;;3.20;;
82867;SDS011;72629;51.206;4.424;2023-09-18T12:41:00;6.63;;;3.10;;
82867;SDS011;72629;51.206;4.424;2023-09-18T12:43:41;6.03;;;3.30;;
82867;SDS011;72629;51.206;4.424;2023-09-18T12:46:08;6.57;;;3.22;;
82867;SDS011;72629;51.206;4.424;2023-09-18T12:48:38;6.05;;;3.17;;
82867;SDS011;72629;51.206;4.424;2023-09-18T12:51:11;7.65;;;3.38;;
82867;SDS011;72629;51.206;4.424;2023-09-18T12:53:38;6.13;;;2.80;;
82867;SDS011;72629;51.206;4.424;2023-09-18T12:56:13;5.03;;;2.65;;
82867;SDS011;72629;51.206;4.424;2023-09-18T12:58:40;5.90;;;3.25;;
82867;SDS011;72629;51.206;4.424;2023-09-18T13:01:07;9.52;;;2.70;;
82867;SDS011;72629;51.206;4.424;2023-09-18T13:03:45;6.30;;;2.80;;
82867;SDS011;72629;51.206;4.424;2023-09-18T13:06:21;7.30;;;2.80;;
82867;SDS011;72629;51.206;4.424;2023-09-18T13:08:47;6.32;;;2.95;;
82867;SDS011;72629;51.206;4.424;2023-09-18T13:11:14;5.63;;;2.45;;
82867;SDS011;72629;51.206;4.424;2023-09-18T13:13:41;7.43;;;2.60;;
82867;SDS011;72629;51.206;4.424;2023-09-18T13:16:07;5.25;;;2.47;;
82867;SDS011;72629;51.206;4.424;2023-09-18T13:18:34;6.85;;;2.70;;
82867;SDS011;72629;51.206;4.424;2023-09-18T13:21:08;7.53;;;2.65;;
82867;SDS011;72629;51.206;4.424;2023-09-18T13:23:37;6.88;;;2.92;;
82867;SDS011;72629;51.206;4.424;2023-09-18T13:26:04;7.47;;;2.80;;
82867;SDS011;72629;51.206;4.424;2023-09-18T13:28:32;7.47;;;2.63;;
82867;SDS011;72629;51.206;4.424;2023-09-18T13:31:00;6.03;;;2.63;;
82867;SDS011;72629;51.206;4.424;2023-09-18T13:33:32;4.65;;;2.25;;
82867;SDS011;72629;51.206;4.424;2023-09-18T13:36:03;5.78;;;2.40;;
82867;SDS011;72629;51.206;4.424;2023-09-18T13:38:29;5.57;;;2.90;;
82867;SDS011;72629;51.206;4.424;2023-09-18T13:40:55;6.38;;;3.00;;
82867;SDS011;72629;51.206;4.424;2023-09-18T13:43:20;5.35;;;2.50;;
82867;SDS011;72629;51.206;4.424;2023-09-18T13:45:49;5.45;;;2.80;;
82867;SDS011;72629;51.206;4.424;2023-09-18T13:48:18;5.57;;;2.80;;
82867;SDS011;72629;51.206;4.424;2023-09-18T13:50:44;5.00;;;2.45;;
82867;SDS011;72629;51.206;4.424;2023-09-18T13:53:12;7.35;;;2.75;;
82867;SDS011;72629;51.206;4.424;2023-09-18T13:55:38;6.78;;;2.40;;
82867;SDS011;72629;51.206;4.424;2023-09-18T13:58:03;7.38;;;2.75;;
82867;SDS011;72629;51.206;4.424;2023-09-18T14:00:29;4.78;;;2.38;;
82867;SDS011;72629;51.206;4.424;2023-09-18T14:02:55;6.72;;;2.53;;
82867;SDS011;72629;51.206;4.424;2023-09-18T14:05:21;7.07;;;2.50;;
82867;SDS011;72629;51.206;4.424;2023-09-18T14:07:48;6.13;;;2.10;;
82867;SDS011;72629;51.206;4.424;2023-09-18T14:10:14;5.32;;;2.13;;
82867;SDS011;72629;51.206;4.424;2023-09-18T14:12:42;7.20;;;2.38;;
82867;SDS011;72629;51.206;4.424;2023-09-18T14:15:08;8.93;;;2.40;;
82867;SDS011;72629;51.206;4.424;2023-09-18T14:17:35;17.38;;;2.65;;
82867;SDS011;72629;51.206;4.424;2023-09-18T14:20:03;15.13;;;3.03;;
82867;SDS011;72629;51.206;4.424;2023-09-18T14:22:33;9.00;;;2.35;;
82867;SDS011;72629;51.206;4.424;2023-09-18T14:24:59;8.25;;;2.25;;
82867;SDS011;72629;51.206;4.424;2023-09-18T14:27:25;10.32;;;3.03;;
82867;SDS011;72629;51.206;4.424;2023-09-18T14:29:50;13.25;;;3.78;;
82867;SDS011;72629;51.206;4.424;2023-09-18T14:32:16;31.25;;;4.43;;
82867;SDS011;72629;51.206;4.424;2023-09-18T14:34:42;11.27;;;2.70;;
82867;SDS011;72629;51.206;4.424;2023-09-18T14:37:07;7.05;;;2.30;;
82867;SDS011;72629;51.206;4.424;2023-09-18T14:39:33;7.03;;;2.45;;
82867;SDS011;72629;51.206;4.424;2023-09-18T14:41:59;9.50;;;2.38;;
82867;SDS011;72629;51.206;4.424;2023-09-18T14:44:25;6.75;;;2.90;;
82867;SDS011;72629;51.206;4.424;2023-09-18T14:46:55;7.60;;;3.38;;
82867;SDS011;72629;51.206;4.424;2023-09-18T14:49:21;6.25;;;2.70;;
82867;SDS011;72629;51.206;4.424;2023-09-18T14:51:47;6.38;;;2.70;;
82867;SDS011;72629;51.206;4.424;2023-09-18T14:54:14;5.88;;;2.63;;
82867;SDS011;72629;51.206;4.424;2023-09-18T14:56:40;6.03;;;2.72;;
82867;SDS011;72629;51.206;4.424;2023-09-18T14:59:06;6.82;;;2.75;;